Choose a state:
Locations above flood stage
(250 streamgages are currently reporting water levels above the National Weather Service defined flood stage)
USGS
station
ID
USGS station name NWS
flood
stage
(ft)
Most recent
stage
(ft)
Most recent
flow
(cfs)
Historical
peaks
(cfs)
Most recent
local
date/time
NWS
station
ID
07074850White River near Augusta, AR 26 30.88 43,900 267,000 2019-05-26 00:00:00 AUGA4
07288700BIG SUNFLOWER RIVER NR ANGUILLA, MS 45 47.97

 

  2019-05-26 00:00:00 ANGM6
05587060ILLINOIS RIVER AT HARDIN, IL 25 36.55

 

  2019-05-25 23:30:00 HARI2
06884700BIG BLUE R AT BLUE RAPIDS, KS 26 56.89

 

  2019-05-26 00:15:00 BLRK1
05587450Mississippi River at Grafton, IL 18 30.94 434,000 598,000 2019-05-26 00:30:00 GRFI2
06813500Missouri River at Rulo, NE 17 22.91 133,000 358,000 2019-05-26 00:45:00 RULN1
06818000Missouri River at St. Joseph, MO 17 24.65 187,000 397,000 2019-05-26 00:30:00 SJSM7
06810070Missouri River at Brownville, NE 34 37.35

 

  2019-05-26 00:15:00 BRON1
06478500JAMES R NEAR SCOTLAND,SD 13 17.57 14,800 29,400 2019-05-26 00:30:00 SCOS2
07020500Mississippi River at Chester, IL 27 41.53 798,000 1,060,000 2019-05-26 00:30:00 CHSI2
06485500BIG SIOUX R AT AKRON,IA 16 18.96 17,900 108,000 2019-05-26 00:00:00 AKRI4
06478513JAMES RIVER NR YANKTON SD 12 18.17 15,800 29,200 2019-05-26 00:00:00 YNNS2
06895500Missouri River at Waverly, MO 20 29.51 232,000 633,000 2019-05-26 00:30:00 WVYM7
07019300Meramec River at Arnold, MO 24 37.31

 

  2019-05-26 00:30:00 ARNM7
06478000JAMES R NEAR MITCHELL,SD 17 22.39 11,200 28,400 2019-05-26 00:45:00 JRMS2
05476500Des Moines River at Estherville, IA 8 9.17 1,350 16,000 2019-05-26 00:00:00 ESVI4
05501600Mississippi River at Hannibal, MO 16 23.94

 

  2019-05-26 00:00:00 HNNM7
05599490BIG MUDDY RIVER AT RTE 127 AT MURPHYSBORO, IL 22 27.32 4,760 42,400 2019-05-25 23:30:00 MURI2
06483950BIG SIOUX RIVER NR HAWARDEN, IA 20.5 25.50 16,600 11,300 2019-05-26 00:30:00 HWDI4
05595000KASKASKIA RIVER AT NEW ATHENS, IL 79 87.03 13,100 83,000 2019-05-25 23:00:00 NASI2
06805600Missouri River at Plattsmouth, NE 26 28.42

 

  2019-05-26 00:15:00 PTMN1
06480000BIG SIOUX RIVER NEAR BROOKINGS,SD 9 11.92 5,510 33,900 2019-05-26 00:45:00 BRKS2
06477000JAMES R NEAR FORESTBURG,SD 12 15.55 7,450 28,400 2019-05-26 00:15:00 FORS2
05316580MINNESOTA RIVER AT MORTON, MN 21 23.85 16,500 45,400 2019-05-26 00:30:00 MTNM5
06476000JAMES R AT HURON,SD 11 14.92 7,210 23,400 2019-05-26 00:15:00 HURS2
06479770BIG SIOUX RIVER NEAR BRUCE, SD 8 9.94 2,340 4,530 2019-05-26 00:45:00 BRCS2
07381600Lower Atchafalaya River at Morgan City, LA 6 8.26 309,000 512,000 2019-05-26 00:00:00 MCGL1
07022000Mississippi River at Thebes, IL 33 40.08 723,000 1,075,000 2019-05-26 00:30:00 THBI2
06471000JAMES R AT COLUMBIA,SD 13 16.71 Bkw 9,620 2019-05-26 00:15:00 CMBS2
06472000JAMES R NEAR STRATFORD,SD 14 17.34 3,190 9,910 2019-05-26 00:45:00 SFDS2
06473000JAMES R AT ASHTON,SD 13 17.79 Bkw 9,520 2019-05-26 00:45:00 ATNS2
08032000Neches Rv nr Neches, TX 12 13.30 1,850 45,500 2019-05-26 00:30:00 NCST2
06894650Missouri River at Napoleon, MO 17 27.24 259,000 276,000 2019-05-26 00:00:00 NAPM7
07367005Ouachita River at West Monroe, LA 40 45.72 76,700 88,500 2019-05-26 00:00:00 MLUL1
06466700LEWIS AND CLARK LAKE AT SPRINGFIELD,SD 10 11.06

 

  2019-05-26 00:15:00 SPGS2
06481000BIG SIOUX R NEAR DELL RAPIDS,SD 12 13.43 6,100 41,300 2019-05-26 00:30:00 DERS2
05311000MINNESOTA RIVER AT MONTEVIDEO, MN 14 16.10 9,830 47,500 2019-05-26 00:00:00 MVOM5
07072500Black River at Black Rock, AR 14 19.81 23,100 190,000 2019-05-26 00:00:00 BKRA4
07289000MISSISSIPPI RIVER AT VICKSBURG, MS 43 49.72 1,620,000 2,310,000 2019-05-26 00:00:00 VCKM6
08018500Sabine Rv nr Mineola, TX 14 16.77 5,640 76,000 2019-05-26 00:15:00 MLAT2
08032500Neches Rv nr Alto, TX 16 17.66 5,200 50,000 2019-05-26 00:15:00 ATOT2
08033000Neches Rv nr Diboll, TX 12 15.10 13,000 110,000 2019-05-26 00:15:00 DIBT2
04294413LAKE CHAMPLAIN AT PORT HENRY NY 100 100.21

 

  2019-05-26 00:45:00 PHCN6
04294500LAKE CHAMPLAIN AT BURLINGTON, VT 100 100.18

 

2019-05-26 01:00:00 BURV1
08066000Trinity Rv at Riverside, TX 133.5 136.78

 

121,000 2019-05-26 00:30:00 RVRT2
04295000RICHELIEU R (L CHAMPLAIN) AT ROUSES POINT NY 100 100.18

 

  2019-05-26 00:00:00 ROUN6
08020000Sabine Rv nr Gladewater, TX 26 30.62 8,560 138,000 2019-05-26 00:15:00 GDWT2
07020850Mississippi River at Cape Girardeau, MO 32 42.01

 

  2019-05-26 00:30:00 CPGM7
08062700Trinity Rv at Trinidad, TX 33 36.31 19,400 94,500 2019-05-26 00:00:00 TDDT2
08020900Sabine Rv bl Longview, TX 25 29.13 12,000 40,100 2019-05-26 00:00:00 LONT2
08065000Trinity Rv nr Oakwood, TX 35 37.42 28,400 180,000 2019-05-26 00:30:00 LOLT2
411925089063901ILLINOIS RIVER NEAR LA SALLE, IL (CORPS) 20 24.67

 

  2019-05-25 23:45:00 LSLI2
05518000KANKAKEE RIVER AT SHELBY, IN 9 10.27 4,060 7,650 2019-05-26 00:45:00 SLBI3
05420500Mississippi River at Clinton, IA 17 17.76 172,000 307,000 2019-05-26 00:30:00 CMMI4
08067000Trinity Rv at Liberty, TX 26 28.53 43,900 135,000 2019-05-26 00:15:00 LBYT2
06934500Missouri River at Hermann, MO 21 32.33 404,000 750,000 2019-05-26 00:30:00 HRNM7
06918250Osage River at Taberville, MO 23 42.10 55,200 53,200 2019-05-26 00:45:00 TBVM7
05585500ILLINOIS RIVER AT MEREDOSIA, IL 17 24.98 5,790 123,000 2019-05-25 23:00:00 MROI2
08067100Trinity Rv nr Moss Bluff, TX 12.2 14.14

 

  2019-05-26 00:30:00 MBFT2
08019200Sabine Rv nr Hawkins, TX 23 23.04 5,950 42,500 2019-05-26 00:45:00 HAKT2
05558300ILLINOIS RIVER AT HENRY, IL 23 27.05 44,700 161,000 2019-05-25 23:45:00 HNYI2
07076750 White River at Georgetown, AR 21 21.02 50,900 179,000 2019-05-26 00:00:00 GEOA4
08022040Sabine Rv nr Beckville, TX 26 28.10 16,100 123,000 2019-05-26 00:45:00 BEKT2
05586100ILLINOIS RIVER AT VALLEY CITY, IL 14 23.56 80,900 123,000 2019-05-25 23:00:00 VALI2
07362000Ouachita River at Camden, AR 26 28.86 23,200 243,000 2019-05-26 00:45:00 CAMA4
08030500Sabine Rv nr Ruliff, TX 24 25.95 45,600 206,000 2019-05-25 23:45:00 DWYT2
08022500Sabine Rv at Logansport, LA 28 29.20 22,400 92,000 2019-05-26 00:45:00 LPTL1
07348700Bayou Dorcheat near Springhill, LA 11 11.88 1,200 36,700 2019-05-26 00:00:00 SPHL1
07010000Mississippi River at St. Louis, MO 30 40.67 782,000 1,080,000 2019-05-26 00:30:00 EADM7
07369649Tensas River South of Newlight, LA 55 55.19

 

2019-05-26 00:00:00 NLGL1
08012150Mermentau River At Mermentau, LA 4 4.17 3,720 58,000 2019-05-26 00:15:00 MRML1
07386880Vermilion River at Surrey St. at Lafayette, LA 10 10.04 2,210 6,280 2019-05-26 00:15:00 VLSL1
07349650(COE) Byu Bodcau Lake nr Shreveport, LA (Landside) 172 188.64

 

2019-05-26 00:00:00 LBBL1
06466010Missouri River at Niobrara, Nebr. 21 24.11

 

  2019-05-26 00:15:00 MRNN1
08028500Sabine Rv nr Bon Wier, TX 30 35.14 47,700 279,000 2019-05-26 00:15:00 BWRT2
02489500Pearl River near Bogalusa, LA 18 19.41 21,700 133,000 2019-05-26 00:00:00 BXAL1
02492600Pearl River at Pearl River, LA 14 16.07

 

230,000 2019-05-26 00:00:00 PERL1
07342500S Sulphur Rv nr Cooper, TX 16 16.86 2,010 47,200 2019-05-26 00:15:00 COPT2
05472500North Skunk River near Sigourney, IA 16 17.27 4,890 27,500 2019-05-26 00:30:00 SIGI4
05466500EDWARDS RIVER NEAR NEW BOSTON, IL 17 22.09 4,340 18,000 2019-05-25 23:30:00 NWBI2
06479525BIG SIOUX R NEAR CASTLEWOOD,SD 9 9.52 746 4,300 2019-05-26 00:45:00 CSWS2
05453100Iowa River at Marengo, IA 15 17.22 10,100 51,000 2019-05-26 00:00:00 MROI4
05465700Iowa River at Oakville, IA 11 11.71 Bkw 188,000 2019-05-26 00:00:00 OKVI4
08038000Attoyac Bayou nr Chireno, TX 14 15.10 1,480 50,000 2019-05-26 00:30:00 ATBT2
08013000Calcasieu River nr Glenmora, LA 12 13.14 2,510 59,900 2019-05-26 00:45:00 GLML1
06902000Grand River near Sumner, MO 26 35.70 52,900 180,000 2019-05-26 00:45:00 SNZM7
07381515Atchafalaya River at Butte La Rose, LA 20 20.12

 

2019-05-26 00:00:00 BLRL1
06906500Missouri River at Glasgow, MO 25 35.38 331,000 322,000 2019-05-26 00:30:00 GLZM7
07143310COW C NR HUTCHINSON, KS 9.5 11.27

 

  2019-05-26 00:15:00 HTCK1
06876900SOLOMON R AT NILES, KS 24 28.76 9,420 178,000 2019-05-26 00:30:00 NLSK1
06870200SMOKY HILL R AT NEW CAMBRIA, KS 27 28.01 276 26,400 2019-05-26 00:45:00 NCMK1
06935965Missouri River at St. Charles, MO 25 33.60 392,000 515,000 2019-05-26 00:30:00 SCLM7
06876700SALT C NR ADA, KS 18 19.96 1,840 16,000 2019-05-26 00:45:00 ADAK1
06910450Missouri River at Jefferson City, MO 23 31.63 361,000 293,000 2019-05-26 00:45:00 JFFM7
05054000RED RIVER OF THE NORTH AT FARGO, ND 18 20.18 5,710 29,500 2019-05-26 00:15:00 FGON8
06818300MISSOURI R AT ATCHISON, KS 22 25.84

 

2019-05-26 00:45:00 ATCK1
06915800MARAIS DES CYGNES R AT LA CYGNE, KS 25 31.13 24,200 131,000 2019-05-26 00:30:00 LCGK1
07151000Salt Fork Arkansas River at Tonkawa, OK 17 24.27 28,900 97,300 2019-05-26 00:30:00 TONO2
07183500NEOSHO R NR PARSONS, KS 21 28.77 57,900 410,000 2019-05-26 00:00:00 PPFK1
07185000Neosho River near Commerce, OK 15 24.86 79,400 267,000 2019-05-26 00:30:00 COMO2
07146500ARKANSAS R AT ARKANSAS CITY, KS 11 18.63 52,900 103,000 2019-05-26 00:45:00 ARCK1
06885500BLACK VERMILLION R NR FRANKFORT, KS 19 24.91 Bkw 38,300 2019-05-26 00:30:00 FKFK1
07183000NEOSHO R NR IOLA, KS 15 21.36 34,000 436,000 2019-05-26 00:30:00 IOLK1
07158000Cimarron River near Waynoka, OK 8 9.15 5,410 94,500 2019-05-26 00:30:00 WANO2
07183300NEOSHO R NR ERIE, KS 29 37.78

 

  2019-05-26 00:15:00 EREK1
07184000LIGHTNING C NR MCCUNE, KS 12 13.33 3,460 67,500 2019-05-26 00:45:00 MCNK1
07170500VERDIGRIS R AT INDEPENDENCE, KS 30 35.20 31,100 168,823 2019-05-26 00:45:00 IDPK1
06877600SMOKY HILL R AT ENTERPRISE, KS 26 30.13 26,700 233,000 2019-05-26 00:45:00 ENTK1
06921720Big Creek near Blairstown, MO 20 23.89 8,170 24,400 2019-05-26 00:00:00 BLRM7
07152500Arkansas River at Ralston, OK 16 21.46 168,000 211,000 2019-05-26 00:15:00 RLSO2
06919900Sac River near Caplinger Mills, MO 16 21.45 15,300 61,500 2019-05-26 00:45:00 CMZM7
07143330ARKANSAS R NR HUTCHINSON, KS 10 11.19 10,900 24,700 2019-05-26 00:45:00 HAVK1
07187600SPRING R NR BAXTER SPRINGS, KS 14 18.56 51,100 145,714 2019-05-26 00:45:00 BXTK1
06918070Osage River above Schell City, MO 30 42.54 769 153,000 2019-05-26 00:45:00 SCZM7
07145600ARKANSAS R ON HWY 160 AT OXFORD, KS 17 21.19 46,500 36,449 2019-05-26 00:45:00 OXFK1
07188000Spring River near Quapaw, OK 20 26.45 59,200 230,000 2019-05-26 00:00:00 QUAO2
07161450Cimarron River near Ripley, OK 17 22.77 47,100 141,000 2019-05-26 00:00:00 RIPO2
07178000Bird Creek near Owasso, OK 18 19.36 17,100 29,200 2019-05-26 00:00:00 OWSO2
07182390NEOSHO R AT NEOSHO RAPIDS, KS 22 26.20 Bkw 26,451 2019-05-26 00:30:00 NEOK1
06821190Platte River at Sharps Station, MO 26 29.29 15,400 41,800 2019-05-26 00:30:00 SSTM7
06908000Blackwater River at Blue Lick, MO 24 33.12 13,000 54,000 2019-05-26 00:45:00 BLVM7
06918060Marmaton River near Nevada, MO 20 27.10 18,100 34,900 2019-05-26 00:45:00 NVDM7
07159100Cimarron River near Dover, OK 17 21.33 36,200 123,000 2019-05-26 00:30:00 DOVO2
07186000Spring River near Waco, MO 19 19.62 18,700 151,000 2019-05-26 00:30:00 WCOM7
07194500Arkansas River near Muskogee, OK 28 46.21 662,000 700,000 2019-05-26 00:00:00 MKGO2
06821250Missouri River above Parkville, MO 25 27.66 188,000 132,000 2019-05-26 00:45:00 PKVM7
06917560Marmaton River near Richards, MO 25 26.66 7,380 38,700 2019-05-26 00:15:00 RCCM7
07147900WALNUT R AT ARKANSAS CITY, KS 18 20.65

 

  2019-05-26 00:45:00 ARKK1
07175500Caney River near Ramona, OK 26 27.87 18,100 85,600 2019-05-25 23:45:00 RAMO2
06916600MARAIS DES CYGNES R NR KS-MO ST LINE, KS 27 38.50 51,200 137,000 2019-05-26 00:45:00 TPOK1
06935450Missouri River at Washington, MO 20 28.33 419,000 520,000 2019-05-25 23:45:00 WHGM7
07182260COTTONWOOD R AT EMPORIA, KS 20 25.23 17,900 18,672 2019-05-26 00:30:00 EMPK1
06869500SALINE R AT TESCOTT, KS 25 28.71 3,770 61,400 2019-05-26 00:30:00 TSCK1
07182250COTTONWOOD R NR PLYMOUTH, KS 32 32.43 16,600 92,900 2019-05-26 00:00:00 PLYK1
07144570ARKANSAS R AT MULVANE, KS 16.5 18.53 32,100 28,238 2019-05-26 00:15:00 MULK1
07144550ARKANSAS R AT DERBY, KS 12 13.59 30,900 58,300 2019-05-26 00:00:00 DRBK1
07312200Beaver Ck nr Electra, TX 24 26.61 2,170 11,700 2019-05-26 00:00:00 ELTT2
06477500FIRESTEEL CR NEAR MOUNT VERNON,SD 8 10.13 1,430 7,420 2019-05-26 00:15:00 MTVS2
05452500Iowa River near Belle Plaine, IA 15 16.83 9,640 43,000 2019-05-26 00:00:00 BPLI4
05316500REDWOOD RIVER NEAR REDWOOD FALLS, MN 6 6.38 1,990 19,700 2019-05-26 00:30:00 RWDM5
07164500Arkansas River at Tulsa, OK 18 21.86 243,000 307,000 2019-05-26 00:30:00 TLSO2
05584500LA MOINE RIVER AT COLMAR, IL 20 22.46 6,110 38,900 2019-05-25 23:45:00 CLMI2
07243500Deep Fork near Beggs, OK 18 25.45 18,800 66,800 2019-05-26 00:15:00 BGSO2
07165570Arkansas River near Haskell, OK 19 23.17 250,000 259,000 2019-05-26 00:00:00 HSKO2
07182510NEOSHO R AT BURLINGTON, KS 27 32.54 35,100 26,200 2019-05-26 00:15:00 BRLK1
06446000WHITE R NEAR OGLALA SD 19 19.94 2,670 6,920 2019-05-25 23:00:00 WOGS2
03342000WABASH RIVER AT RIVERTON, IN 15 17.04 31,100 250,000 2019-05-26 00:00:00 RVTI3
06917060Little Osage River at Horton, MO 41 47.60 13,200 48,400 2019-05-26 00:45:00 HTNM7
05592500KASKASKIA RIVER AT VANDALIA, IL 18 21.02 8,970 62,700 2019-05-25 23:30:00 VNDI2
03379500LITTLE WABASH RIVER BELOW CLAY CITY, IL 18 20.31 7,000 47,000 2019-05-25 23:45:00 CLAI2
05482300North Raccoon River near Sac City, IA 13 15.56 4,230 13,100 2019-05-26 00:15:00 SCRI4
06452000WHITE R NEAR OACOMA,SD 15 16.98 21,300 51,900 2019-05-26 00:15:00 OACS2
05378500MISSISSIPPI RIVER AT WINONA, MN 13 15.05 145,000 268,000 2019-05-26 00:45:00 WNAM5
07069000Black River at Pocahontas, AR 17 19.21 17,100 105,000 2019-05-26 00:00:00 POCA4
07314900Little Wichita Rv abv Henrietta, TX 17 17.25 1,070 14,200 2019-05-26 00:30:00 HTAT2
05389500Mississippi River at McGregor, IA 16 17.54 24,000 276,000 2019-05-26 00:45:00 MCGI4
06334500LITTLE MISSOURI R AT CAMP CROOK,SD 12 13.65 4,430 20,100 2019-05-25 23:45:00 CACS2
03340500WABASH RIVER AT MONTEZUMA, IN 14 16.46 26,800 230,000 2019-05-26 00:45:00 MTZI3
05570000SPOON RIVER AT SEVILLE, IL 22 24.09 13,200 42,500 2019-05-25 23:45:00 SEVI2
10325000HUMBOLDT RV AT BATTLE MOUNTAIN, NV 9.5 9.68 2,920 8,880 2019-05-25 22:15:00 HBMN2
07019130Meramec River at Valley Park, MO 16 19.40 616 2019-05-26 00:30:00 VLLM7
05482430North Raccoon River near Lanesboro, IA 15 17.77

 

  2019-05-26 00:15:00 LKCI4
06909000Missouri River at Boonville, MO 21 31.80 360,000 755,000 2019-05-26 00:30:00 BOZM7
03346500EMBARRAS RIVER AT LAWRENCEVILLE, IL 30 32.03 11,800 47,500 2019-05-25 23:45:00 LAWI2
03360730WHITE RIVER NEAR EDWARDSPORT, IN 15 16.83 17,500 61,400 2019-05-26 00:30:00 EDWI3
05330000MINNESOTA RIVER NEAR JORDAN, MN 25 25.83 36,300 117,000 2019-05-26 00:45:00 JDNM5
05465000Cedar River near Conesville, IA 13 14.02 25,900 127,000 2019-05-26 00:00:00 CNEI4
06918440Sac River near Dadeville, MO 14 14.83 4,960 36,100 2019-05-26 00:30:00 DDZM7
05316770MINNESOTA RIVER AT NEW ULM, MN 800 800.43 17,700 58,000 2019-05-26 00:45:00 NULM5
07019210Meramec River at Fenton, MO 25 27.67

 

2019-05-26 00:15:00 FNNM7
03336000WABASH RIVER AT COVINGTON, IN 16 16.38 20,500 200,000 2019-05-26 00:45:00 CVGI3
05446500ROCK RIVER NEAR JOSLIN, IL 12 13.26 20,800 47,700 2019-05-25 23:45:00 JOSI2
07171000Verdigris River near Lenapah, OK 30 34.76 Bkw 192,000 2019-05-26 00:00:00 LEPO2
07176000Verdigris River near Claremore, OK 36 43.76 74,500 182,000 2019-05-26 00:30:00 CLRO2
03341500WABASH RIVER AT TERRE HAUTE, IN 16.5 17.55 28,400 245,000 2019-05-26 00:30:00 HUFI3
05545750FOX RIVER NEAR NEW MUNSTER, WI 11 12.26 3,110 7,520 2019-05-26 00:00:00 NMSW3
09417500MEADOW VALLEY WASH AT EAGLE CYN NR URSINE, NV 7 7.22 98.4 950 2019-05-25 22:30:00 MVEN2
05485500Des Moines River blw Raccoon Riv at Des Moines, IA 24 25.92 34,700 116,000 2019-05-26 00:00:00 DESI4
05484900Raccoon River at Fleur Drive at Des Moines, IA 12 14.27 19,100 67,900 2019-05-26 00:45:00 DEMI4
06442996LAKE FRANCIS CASE AT CHAMBERLAIN, SD 65 66.53

 

  2019-05-26 00:30:00 CBLS2
06813000Tarkio River at Fairfax, MO 17 20.00 5,640 16,300 2019-05-26 00:15:00 FFXM7
05476750Des Moines River at Humboldt, IA 10 10.54 8,130 19,000 2019-05-26 00:15:00 HBTI4
06807000Missouri River at Nebraska City, NE 18 20.73 120,000 414,000 2019-05-26 00:45:00 NEBN1
06856600REPUBLICAN R AT CLAY CENTER, KS 15 18.16 10,200 195,000 2019-05-26 00:30:00 CYCK1
05480500Des Moines River at Fort Dodge, IA 10.5 11.29 19,900 36,800 2019-05-26 00:00:00 FODI4
07260800Arkansas River near Morrilton, AR 30 35.54

 

311,000 2019-05-26 00:15:00 MORA4
05455500English River at Kalona, IA 14 16.11 6,130 36,100 2019-05-26 00:00:00 KALI4
06864500SMOKY HILL R AT ELLSWORTH, KS 20 20.86 13,400 61,000 2019-05-26 00:30:00 ELWK1
07141200PAWNEE R AT ROZEL, KS 31 33.25 4,790 16,300 2019-05-26 00:30:00 ROZK1
08055500Elm Fk Trinity Rv nr Carrollton, TX 8 8.29 6,790 145,000 2019-05-26 00:15:00 CART2
06605850Little Sioux River at Linn Grove, IA 18 18.29 4,250 22,500 2019-05-26 00:00:00 LNNI4
05549501FOX RIVER (TAILWATER) NEAR MCHENRY, IL 4 4.20

 

  2019-05-25 23:15:00 MHYI2
06878000CHAPMAN C NR CHAPMAN, KS 19 20.61 3,900 46,700 2019-05-26 00:45:00 CHPK1
05489500Des Moines River at Ottumwa, IA 11.5 12.43 37,700 140,000 2019-05-26 00:50:00 OTMI4
06475000JAMES R NEAR REDFIELD,SD 20 21.25 6,940 17,000 2019-05-26 00:45:00 RFDS2
06820475MISSOURI R AT LEAVENWORTH, KS 20 22.74

 

2019-05-26 00:00:00 LEVK1
07239300North Canadian River blw Weavers Ck nr Watonga, OK 15 16.94 3,050 7,220 2019-05-26 00:30:00 WATO2
07258000Arkansas River at Dardanelle, AR 32 36.77

 

683,000 2019-05-26 00:00:00 DARA4
07307028North Fork Red River near Tipton, OK 14 14.09 9,410 57,200 2019-05-26 00:30:00 TIPO2
07147190WHITEWATER R AT AUGUSTA, KS 21 26.13

 

  2019-05-26 00:45:00 AGSK1
07305000North Fork Red River near Headrick, OK 14 15.16 7,080 60,000 2019-05-26 00:00:00 HEAO2
07307010Otter Creek near Snyder, OK 11 13.34

 

5,240 2019-05-26 00:00:00 SYDO2
06914000POTTAWATOMIE C NR GARNETT, KS 26 27.95 11,400 57,000 2019-05-26 00:45:00 GRTK1
07160500Skeleton Creek near Lovell, OK 35 40.94 18,000 75,200 2019-05-26 00:30:00 LVLO2
05053000WILD RICE RIVER NR ABERCROMBIE, ND 10 10.04 1,920 14,100 2019-05-26 00:15:00 ABRN8
06820500Platte River near Agency, MO 20 25.26 14,500 60,800 2019-05-26 00:30:00 AGYM7
07169500FALL R AT FREDONIA, KS 17 31.43 27,700 77,800 2019-05-26 00:45:00 FRNK1
07228500Canadian River at Bridgeport, OK 14 16.21 14,700 150,000 2019-05-26 00:30:00 BRIO2
05465500Iowa River at Wapello, IA 21 21.27 37,900 188,000 2019-05-26 00:00:00 WAPI4
06895000Crooked River near Richmond, MO 20 20.48 2,450 29,000 2019-05-26 00:30:00 RICM7
06896000Wakenda Creek at Carrollton, MO 16 18.92 4,380 13,100 2019-05-26 00:00:00 CAXM7
07299670Groesbeck Ck at SH 6 nr Quanah, TX 14 18.98 5,030 18,000 2019-05-26 00:00:00 QGCT2
05420400Mississippi River at Lock and Dam 13 nr Fulton, IL 16 16.30

 

  2019-05-26 00:30:00 FLTI2
06892950KANSAS R AT KANSAS CITY, KS 33 33.41

 

  2019-05-26 00:45:00 KCKK1
06907700Blackwater River at Valley City, MO 22 23.51 6,400 66,500 2019-05-26 00:00:00 VLYM7
06913000MARAIS DES CYGNES R NR POMONA, KS 20 24.81 10,400 69,400 2019-05-26 00:30:00 PMNK1
06921600South Grand River at Urich, MO 24 27.15 11,200 29,200 2019-05-26 00:15:00 URHM7
07147800WALNUT R AT WINFIELD, KS 18 28.36 34,300 105,000 2019-05-26 00:45:00 WFDK1
08057000Trinity Rv at Dallas, TX 30 30.54 11,000 184,000 2019-05-26 00:00:00 DALT2
07141300ARKANSAS R AT GREAT BEND, KS 12 12.45 7,410 27,800 2019-05-26 00:30:00 GTBK1
07141900WALNUT C AT ALBERT, KS 24 25.06 2,520 12,700 2019-05-25 23:45:00 ALBK1
05280000CROW RIVER AT ROCKFORD, MN 10 10.27 6,900 22,400 2019-05-26 00:15:00 RKFM5
05421740Wapsipinicon River near Anamosa, IA 14.5 16.09 11,000 31,800 2019-05-26 00:15:00 ANSI4
06605000Ocheyedan River near Spencer, IA 8 8.11 1,670 26,000 2019-05-26 00:45:00 SPOI4
06891850STRANGER C AT EASTON, KS 17 19.53 5,130 10,213 2019-05-26 00:30:00 ESTK1
06899680Grand River at Chillicothe, MO 24 26.70 Dis 2019-05-26 00:45:00 CHZM7
07174400Caney River above Coon Creek at Bartlesville, OK 13 13.92 13,000 94,500 2019-05-26 00:00:00 BVLO2
07249413Poteau River near Panama, OK 29 30.77 12,300 82,100 2019-05-26 00:30:00 PANO2
04151500CASS RIVER AT FRANKENMUTH, MI 17 18.87 8,180 22,200 2019-05-26 00:45:00 FRNM4
05451770Iowa River at County Highway E49 near Tama, IA 12.5 13.24 12,300 26,700 2019-05-26 00:00:00 TMAI4
05463050Cedar River at Cedar Falls, IA 89 89.71 21,300 83,900 2019-05-26 00:45:00 CEDI4
06914500POTTAWATOMIE C AT LANE, KS 23 24.96 15,500 75,000 2019-05-26 00:30:00 LNEK1
06917000L OSAGE R AT FULTON, KS 22 24.13 7,260 62,800 2019-05-26 00:45:00 FTNK1
07160000Cimarron River near Guthrie, OK 18 20.02 49,000 158,000 2019-05-26 00:30:00 GTRO2
07166500VERDIGRIS R NR ALTOONA, KS 19 21.12 24,300 71,000 2019-05-26 00:45:00 ATOK1
07145500NINNESCAH R NR PECK, KS 17 18.05 15,800 70,000 2019-05-26 00:45:00 PECK1
07177500Bird Creek near Sperry, OK 21 22.38 12,200 90,000 2019-05-26 00:00:00 SPEO2
07311000East Cache Creek near Walters, OK 21 24.50 4,450 50,900 2019-05-26 00:30:00 WLTO2
08041780Neches Rv Saltwater Barrier at Beaumont, TX 4 4.03 22,400 232,000 2019-05-26 00:15:00 NSBT2
05422000Wapsipinicon River near De Witt, IA 11 11.13 6,190 40,900 2019-05-26 00:30:00 DEWI4
05490600Des Moines River at St. Francisville, MO 18 19.50 41,800 66,700 2019-05-26 00:15:00 SFLM7
05455700Iowa River near Lone Tree, IA 16 16.24 18,200 57,100 2019-05-26 00:00:00 LNTI4
05486000North River near Norwalk, IA 22 23.22 8,150 32,000 2019-05-26 00:15:00 NRWI4
07238000North Canadian River near Seiling, OK 11 11.79 1,630 33,000 2019-05-26 00:00:00 SEIO2
07325000Washita River near Clinton, OK 18 20.51 2,810 90,000 2019-05-26 00:30:00 CLIO2
07301500North Fork Red River near Carter, OK 16 16.01 6,250 53,400 2019-05-26 00:00:00 CARO2
07324400Washita River near Foss, OK 18 18.94 1,850 14,000 2019-05-26 00:45:00 FBFO2
02226180BRUNSWICK RIVER AT ST. SIMONS ISLAND, GA 2 2.13

 

2019-05-26 01:45:00 BRNG1
05502300North Fork Salt River at Hagers Grove, MO 12 12.22 5,160 36,500 2019-05-26 00:30:00 HGZM7
06904500Chariton River at Novinger, MO 20 20.52 18,200 38,800 2019-05-26 00:45:00 NVZM7